sensor_id;sensor_type;location;lat;lon;timestamp;pressure;altitude;pressure_sealevel;temperature;humidity
15489;BME280;7846;48.830;9.116;2023-05-23T00:02:05;97685.06;;;20.27;76.83
15489;BME280;7846;48.830;9.116;2023-05-23T00:04:33;97689.22;;;20.41;76.35
15489;BME280;7846;48.830;9.116;2023-05-23T00:07:00;97683.09;;;20.59;75.42
15489;BME280;7846;48.830;9.116;2023-05-23T00:09:25;97687.09;;;20.50;75.71
15489;BME280;7846;48.830;9.116;2023-05-23T00:11:53;97691.13;;;20.59;75.00
15489;BME280;7846;48.830;9.116;2023-05-23T00:14:18;97689.84;;;20.43;75.80
15489;BME280;7846;48.830;9.116;2023-05-23T00:16:44;97692.22;;;20.70;75.35
15489;BME280;7846;48.830;9.116;2023-05-23T00:19:11;97685.88;;;20.46;76.33
15489;BME280;7846;48.830;9.116;2023-05-23T00:21:39;97684.31;;;20.38;76.76
15489;BME280;7846;48.830;9.116;2023-05-23T00:24:04;97693.69;;;20.29;76.67
15489;BME280;7846;48.830;9.116;2023-05-23T00:26:30;97682.25;;;20.40;76.49
15489;BME280;7846;48.830;9.116;2023-05-23T00:28:58;97681.13;;;20.48;75.87
15489;BME280;7846;48.830;9.116;2023-05-23T00:31:24;97685.03;;;20.52;75.93
15489;BME280;7846;48.830;9.116;2023-05-23T00:33:49;97690.31;;;20.59;75.36
15489;BME280;7846;48.830;9.116;2023-05-23T00:36:15;97694.31;;;20.49;75.56
15489;BME280;7846;48.830;9.116;2023-05-23T00:38:41;97694.91;;;20.70;75.29
15489;BME280;7846;48.830;9.116;2023-05-23T00:41:07;97693.03;;;20.52;76.10
15489;BME280;7846;48.830;9.116;2023-05-23T00:43:32;97696.66;;;20.58;75.76
15489;BME280;7846;48.830;9.116;2023-05-23T00:45:58;97700.00;;;20.71;75.74
15489;BME280;7846;48.830;9.116;2023-05-23T00:48:25;97700.97;;;20.77;75.47
15489;BME280;7846;48.830;9.116;2023-05-23T00:50:51;97702.28;;;20.86;75.20
15489;BME280;7846;48.830;9.116;2023-05-23T00:53:16;97705.94;;;20.92;74.93
15489;BME280;7846;48.830;9.116;2023-05-23T00:55:43;97704.28;;;20.91;75.46
15489;BME280;7846;48.830;9.116;2023-05-23T00:58:08;97711.97;;;20.69;76.23
15489;BME280;7846;48.830;9.116;2023-05-23T01:00:37;97716.56;;;20.80;76.14
15489;BME280;7846;48.830;9.116;2023-05-23T01:03:03;97711.97;;;20.69;76.56
15489;BME280;7846;48.830;9.116;2023-05-23T01:05:29;97716.88;;;20.72;75.75
15489;BME280;7846;48.830;9.116;2023-05-23T01:07:55;97715.38;;;20.76;76.03
15489;BME280;7846;48.830;9.116;2023-05-23T01:10:24;97708.41;;;20.75;76.30
15489;BME280;7846;48.830;9.116;2023-05-23T01:15:48;97709.00;;;20.77;75.74
15489;BME280;7846;48.830;9.116;2023-05-23T01:18:33;97703.13;;;20.98;75.33
15489;BME280;7846;48.830;9.116;2023-05-23T01:21:10;97715.09;;;20.84;75.75
15489;BME280;7846;48.830;9.116;2023-05-23T01:24:01;97711.25;;;21.10;74.67
15489;BME280;7846;48.830;9.116;2023-05-23T01:29:29;97712.53;;;20.89;75.89
15489;BME280;7846;48.830;9.116;2023-05-23T01:31:57;97713.31;;;20.60;76.40
15489;BME280;7846;48.830;9.116;2023-05-23T01:34:24;97714.81;;;20.56;76.10
15489;BME280;7846;48.830;9.116;2023-05-23T01:36:53;97715.16;;;20.77;76.14
15489;BME280;7846;48.830;9.116;2023-05-23T01:39:19;97711.31;;;20.55;76.23
15489;BME280;7846;48.830;9.116;2023-05-23T01:41:45;97709.75;;;20.47;76.56
15489;BME280;7846;48.830;9.116;2023-05-23T01:44:10;97712.59;;;20.52;76.51
15489;BME280;7846;48.830;9.116;2023-05-23T01:46:36;97702.38;;;20.43;76.96
15489;BME280;7846;48.830;9.116;2023-05-23T01:49:08;97709.50;;;20.49;77.62
15489;BME280;7846;48.830;9.116;2023-05-23T01:51:35;97715.63;;;20.13;77.52
15489;BME280;7846;48.830;9.116;2023-05-23T01:54:01;97722.31;;;20.03;78.70
15489;BME280;7846;48.830;9.116;2023-05-23T01:56:27;97709.28;;;20.32;77.79
15489;BME280;7846;48.830;9.116;2023-05-23T01:58:52;97710.00;;;20.02;78.85
15489;BME280;7846;48.830;9.116;2023-05-23T02:01:18;97718.56;;;20.29;77.98
15489;BME280;7846;48.830;9.116;2023-05-23T02:03:44;97717.00;;;20.22;77.22
15489;BME280;7846;48.830;9.116;2023-05-23T02:06:10;97710.97;;;20.51;77.25
15489;BME280;7846;48.830;9.116;2023-05-23T02:08:36;97709.94;;;20.46;76.59
15489;BME280;7846;48.830;9.116;2023-05-23T02:11:02;97712.34;;;20.54;76.14
15489;BME280;7846;48.830;9.116;2023-05-23T02:13:27;97723.25;;;20.34;76.77
15489;BME280;7846;48.830;9.116;2023-05-23T02:15:53;97711.97;;;20.32;76.94
15489;BME280;7846;48.830;9.116;2023-05-23T02:18:20;97719.91;;;20.39;77.05
15489;BME280;7846;48.830;9.116;2023-05-23T02:20:46;97722.03;;;20.55;75.74
15489;BME280;7846;48.830;9.116;2023-05-23T02:23:12;97720.44;;;20.29;76.96
15489;BME280;7846;48.830;9.116;2023-05-23T02:25:37;97721.06;;;20.24;76.29
15489;BME280;7846;48.830;9.116;2023-05-23T02:28:02;97718.63;;;20.23;77.32
15489;BME280;7846;48.830;9.116;2023-05-23T02:30:28;97720.56;;;20.16;77.49
15489;BME280;7846;48.830;9.116;2023-05-23T02:32:53;97715.72;;;20.24;76.86
15489;BME280;7846;48.830;9.116;2023-05-23T02:35:19;97719.13;;;20.57;75.90
15489;BME280;7846;48.830;9.116;2023-05-23T02:37:44;97719.63;;;20.47;75.62
15489;BME280;7846;48.830;9.116;2023-05-23T02:40:10;97720.94;;;20.38;76.13
15489;BME280;7846;48.830;9.116;2023-05-23T02:42:36;97726.50;;;20.18;76.69
15489;BME280;7846;48.830;9.116;2023-05-23T02:45:01;97732.97;;;20.28;76.73
15489;BME280;7846;48.830;9.116;2023-05-23T02:47:26;97726.28;;;20.38;76.18
15489;BME280;7846;48.830;9.116;2023-05-23T02:49:52;97724.84;;;20.17;76.83
15489;BME280;7846;48.830;9.116;2023-05-23T02:52:18;97728.03;;;20.07;77.50
15489;BME280;7846;48.830;9.116;2023-05-23T02:54:45;97731.53;;;20.08;77.76
15489;BME280;7846;48.830;9.116;2023-05-23T02:57:10;97727.09;;;20.20;76.86
15489;BME280;7846;48.830;9.116;2023-05-23T02:59:36;97735.91;;;20.20;77.14
15489;BME280;7846;48.830;9.116;2023-05-23T03:02:02;97730.00;;;20.18;77.07
15489;BME280;7846;48.830;9.116;2023-05-23T03:04:28;97734.81;;;20.28;76.67
15489;BME280;7846;48.830;9.116;2023-05-23T03:06:54;97734.25;;;20.01;77.28
15489;BME280;7846;48.830;9.116;2023-05-23T03:09:20;97742.47;;;20.43;76.05
15489;BME280;7846;48.830;9.116;2023-05-23T03:11:45;97739.41;;;20.39;75.92
15489;BME280;7846;48.830;9.116;2023-05-23T03:14:11;97741.63;;;20.24;76.45
15489;BME280;7846;48.830;9.116;2023-05-23T03:16:37;97741.81;;;20.47;75.15
15489;BME280;7846;48.830;9.116;2023-05-23T03:19:02;97743.75;;;20.40;75.82
15489;BME280;7846;48.830;9.116;2023-05-23T03:21:31;97749.84;;;20.47;76.00
15489;BME280;7846;48.830;9.116;2023-05-23T03:23:57;97744.56;;;20.41;75.99
15489;BME280;7846;48.830;9.116;2023-05-23T03:26:23;97752.09;;;20.50;75.45
15489;BME280;7846;48.830;9.116;2023-05-23T03:28:52;97751.22;;;20.31;76.22
15489;BME280;7846;48.830;9.116;2023-05-23T03:31:18;97753.84;;;20.38;75.70
15489;BME280;7846;48.830;9.116;2023-05-23T03:33:43;97743.28;;;20.25;76.10
15489;BME280;7846;48.830;9.116;2023-05-23T03:36:09;97751.53;;;20.23;76.15
15489;BME280;7846;48.830;9.116;2023-05-23T03:38:34;97746.19;;;20.23;76.20
15489;BME280;7846;48.830;9.116;2023-05-23T03:40:59;97753.63;;;20.21;76.52
15489;BME280;7846;48.830;9.116;2023-05-23T03:43:27;97756.38;;;20.33;75.81
15489;BME280;7846;48.830;9.116;2023-05-23T03:45:52;97756.28;;;20.21;76.17
15489;BME280;7846;48.830;9.116;2023-05-23T03:48:18;97755.19;;;20.47;75.46
15489;BME280;7846;48.830;9.116;2023-05-23T03:50:47;97755.19;;;20.29;76.34
15489;BME280;7846;48.830;9.116;2023-05-23T03:53:12;97750.47;;;20.49;75.27
15489;BME280;7846;48.830;9.116;2023-05-23T03:55:38;97755.94;;;20.36;75.62
15489;BME280;7846;48.830;9.116;2023-05-23T03:58:06;97748.53;;;20.57;75.92
15489;BME280;7846;48.830;9.116;2023-05-23T04:00:34;97755.69;;;20.38;75.67
15489;BME280;7846;48.830;9.116;2023-05-23T04:03:00;97761.84;;;20.20;75.96
15489;BME280;7846;48.830;9.116;2023-05-23T04:05:25;97741.97;;;20.34;75.49
15489;BME280;7846;48.830;9.116;2023-05-23T04:07:51;97761.47;;;20.35;75.82
15489;BME280;7846;48.830;9.116;2023-05-23T04:10:16;97754.44;;;20.22;76.39
15489;BME280;7846;48.830;9.116;2023-05-23T04:12:42;97757.25;;;20.02;77.40
15489;BME280;7846;48.830;9.116;2023-05-23T04:15:08;97752.53;;;20.47;75.44
15489;BME280;7846;48.830;9.116;2023-05-23T04:17:33;97751.81;;;20.59;74.95
15489;BME280;7846;48.830;9.116;2023-05-23T04:19:59;97758.88;;;20.28;76.37
15489;BME280;7846;48.830;9.116;2023-05-23T04:22:24;97759.25;;;20.31;76.20
15489;BME280;7846;48.830;9.116;2023-05-23T04:24:51;97759.19;;;20.38;75.83
15489;BME280;7846;48.830;9.116;2023-05-23T04:27:17;97760.69;;;20.09;76.83
15489;BME280;7846;48.830;9.116;2023-05-23T04:29:43;97770.13;;;20.12;77.18
15489;BME280;7846;48.830;9.116;2023-05-23T04:32:10;97761.59;;;20.03;76.47
15489;BME280;7846;48.830;9.116;2023-05-23T04:34:36;97764.78;;;20.12;76.58
15489;BME280;7846;48.830;9.116;2023-05-23T04:37:02;97769.09;;;20.13;76.49
15489;BME280;7846;48.830;9.116;2023-05-23T04:39:28;97779.31;;;19.97;77.67
15489;BME280;7846;48.830;9.116;2023-05-23T04:41:56;97778.19;;;19.80;78.10
15489;BME280;7846;48.830;9.116;2023-05-23T04:44:22;97773.25;;;20.09;77.60
15489;BME280;7846;48.830;9.116;2023-05-23T04:46:47;97782.13;;;19.77;78.15
15489;BME280;7846;48.830;9.116;2023-05-23T04:49:14;97785.78;;;19.83;78.42
15489;BME280;7846;48.830;9.116;2023-05-23T04:51:42;97785.00;;;19.76;78.90
15489;BME280;7846;48.830;9.116;2023-05-23T04:54:07;97789.13;;;20.28;76.84
15489;BME280;7846;48.830;9.116;2023-05-23T04:56:33;97786.81;;;20.32;76.16
15489;BME280;7846;48.830;9.116;2023-05-23T04:58:58;97790.41;;;19.94;77.04
15489;BME280;7846;48.830;9.116;2023-05-23T05:01:23;97796.63;;;20.13;76.34
15489;BME280;7846;48.830;9.116;2023-05-23T05:03:49;97792.59;;;20.29;76.17
15489;BME280;7846;48.830;9.116;2023-05-23T05:06:16;97796.28;;;20.28;75.93
15489;BME280;7846;48.830;9.116;2023-05-23T05:08:42;97793.56;;;20.10;76.44
15489;BME280;7846;48.830;9.116;2023-05-23T05:11:08;97796.25;;;20.10;76.71
15489;BME280;7846;48.830;9.116;2023-05-23T05:13:34;97801.81;;;20.33;75.39
15489;BME280;7846;48.830;9.116;2023-05-23T05:16:00;97809.75;;;20.21;75.44
15489;BME280;7846;48.830;9.116;2023-05-23T05:18:25;97797.28;;;20.09;76.24
15489;BME280;7846;48.830;9.116;2023-05-23T05:20:51;97799.69;;;20.17;75.92
15489;BME280;7846;48.830;9.116;2023-05-23T05:23:19;97805.97;;;20.04;76.86
15489;BME280;7846;48.830;9.116;2023-05-23T05:25:45;97807.31;;;20.13;75.88
15489;BME280;7846;48.830;9.116;2023-05-23T05:28:10;97808.59;;;20.11;76.38
15489;BME280;7846;48.830;9.116;2023-05-23T05:30:35;97817.47;;;20.29;75.53
15489;BME280;7846;48.830;9.116;2023-05-23T05:33:01;97819.50;;;20.09;75.70
15489;BME280;7846;48.830;9.116;2023-05-23T05:35:33;97806.19;;;20.52;75.57
15489;BME280;7846;48.830;9.116;2023-05-23T05:37:59;97804.31;;;20.28;75.37
15489;BME280;7846;48.830;9.116;2023-05-23T05:40:24;97812.22;;;20.66;74.38
15489;BME280;7846;48.830;9.116;2023-05-23T05:42:50;97805.31;;;20.59;74.26
15489;BME280;7846;48.830;9.116;2023-05-23T05:45:16;97805.38;;;20.27;75.08
15489;BME280;7846;48.830;9.116;2023-05-23T05:47:42;97807.94;;;20.40;74.40
15489;BME280;7846;48.830;9.116;2023-05-23T05:50:07;97804.94;;;20.30;74.80
15489;BME280;7846;48.830;9.116;2023-05-23T05:52:35;97810.28;;;20.30;74.92
15489;BME280;7846;48.830;9.116;2023-05-23T05:55:12;97815.28;;;20.88;73.41
15489;BME280;7846;48.830;9.116;2023-05-23T05:57:39;97808.00;;;20.95;72.19
15489;BME280;7846;48.830;9.116;2023-05-23T06:00:08;97817.41;;;20.98;73.04
15489;BME280;7846;48.830;9.116;2023-05-23T06:02:37;97824.56;;;20.42;74.32
15489;BME280;7846;48.830;9.116;2023-05-23T06:05:02;97823.81;;;20.78;73.34
15489;BME280;7846;48.830;9.116;2023-05-23T06:07:28;97820.75;;;20.93;71.81
15489;BME280;7846;48.830;9.116;2023-05-23T06:09:55;97818.38;;;21.22;70.92
15489;BME280;7846;48.830;9.116;2023-05-23T06:12:20;97819.75;;;21.43;70.33
15489;BME280;7846;48.830;9.116;2023-05-23T06:14:45;97818.50;;;21.27;70.17
15489;BME280;7846;48.830;9.116;2023-05-23T06:17:11;97831.38;;;21.18;70.65
15489;BME280;7846;48.830;9.116;2023-05-23T06:19:36;97823.28;;;21.25;69.81
15489;BME280;7846;48.830;9.116;2023-05-23T06:22:02;97832.44;;;20.62;72.63
15489;BME280;7846;48.830;9.116;2023-05-23T06:24:28;97826.13;;;20.93;71.25
15489;BME280;7846;48.830;9.116;2023-05-23T06:26:53;97828.78;;;20.93;71.34
15489;BME280;7846;48.830;9.116;2023-05-23T06:29:18;97820.59;;;21.25;70.24
15489;BME280;7846;48.830;9.116;2023-05-23T06:31:44;97831.31;;;20.70;72.18
15489;BME280;7846;48.830;9.116;2023-05-23T06:34:09;97843.88;;;20.44;73.18
15489;BME280;7846;48.830;9.116;2023-05-23T06:36:36;97842.34;;;20.30;73.60
15489;BME280;7846;48.830;9.116;2023-05-23T06:39:01;97847.84;;;20.35;73.64
15489;BME280;7846;48.830;9.116;2023-05-23T06:41:26;97854.41;;;20.39;73.64
15489;BME280;7846;48.830;9.116;2023-05-23T06:43:53;97858.75;;;20.09;74.78
15489;BME280;7846;48.830;9.116;2023-05-23T06:46:21;97860.69;;;20.26;74.93
15489;BME280;7846;48.830;9.116;2023-05-23T06:48:47;97859.97;;;20.38;73.97
15489;BME280;7846;48.830;9.116;2023-05-23T06:51:12;97862.31;;;20.27;73.51
15489;BME280;7846;48.830;9.116;2023-05-23T06:53:38;97863.84;;;20.42;72.88
15489;BME280;7846;48.830;9.116;2023-05-23T06:56:03;97864.50;;;20.37;72.89
15489;BME280;7846;48.830;9.116;2023-05-23T06:58:29;97875.38;;;20.17;73.32
15489;BME280;7846;48.830;9.116;2023-05-23T07:00:54;97869.44;;;20.09;73.13
15489;BME280;7846;48.830;9.116;2023-05-23T07:03:19;97870.31;;;19.71;74.38
15489;BME280;7846;48.830;9.116;2023-05-23T07:05:45;97874.84;;;20.02;72.68
15489;BME280;7846;48.830;9.116;2023-05-23T07:08:11;97882.19;;;19.81;72.94
15489;BME280;7846;48.830;9.116;2023-05-23T07:10:37;97877.91;;;19.74;73.51
15489;BME280;7846;48.830;9.116;2023-05-23T07:13:05;97885.06;;;19.80;72.12
15489;BME280;7846;48.830;9.116;2023-05-23T07:15:31;97886.59;;;19.94;71.44
15489;BME280;7846;48.830;9.116;2023-05-23T07:17:56;97894.63;;;19.63;71.34
15489;BME280;7846;48.830;9.116;2023-05-23T07:20:24;97895.81;;;19.60;71.69
15489;BME280;7846;48.830;9.116;2023-05-23T07:22:49;97895.50;;;19.88;70.58
15489;BME280;7846;48.830;9.116;2023-05-23T07:25:16;97906.50;;;19.60;71.54
15489;BME280;7846;48.830;9.116;2023-05-23T07:27:41;97900.63;;;19.45;73.05
15489;BME280;7846;48.830;9.116;2023-05-23T07:30:08;97896.63;;;19.74;72.76
15489;BME280;7846;48.830;9.116;2023-05-23T07:32:34;97892.56;;;19.58;73.75
15489;BME280;7846;48.830;9.116;2023-05-23T07:35:00;97893.34;;;19.65;72.63
15489;BME280;7846;48.830;9.116;2023-05-23T07:37:25;97894.75;;;19.23;73.45
15489;BME280;7846;48.830;9.116;2023-05-23T07:39:53;97901.00;;;19.48;71.20
15489;BME280;7846;48.830;9.116;2023-05-23T07:42:18;97905.47;;;19.68;70.00
15489;BME280;7846;48.830;9.116;2023-05-23T07:44:43;97903.25;;;19.96;68.35
15489;BME280;7846;48.830;9.116;2023-05-23T07:47:10;97903.72;;;20.18;66.71
15489;BME280;7846;48.830;9.116;2023-05-23T07:49:36;97898.50;;;20.30;66.21
15489;BME280;7846;48.830;9.116;2023-05-23T07:52:04;97908.56;;;20.60;64.52
15489;BME280;7846;48.830;9.116;2023-05-23T07:54:29;97900.63;;;20.21;65.86
15489;BME280;7846;48.830;9.116;2023-05-23T07:56:54;97904.31;;;20.20;66.10
15489;BME280;7846;48.830;9.116;2023-05-23T07:59:20;97913.84;;;20.41;65.61
15489;BME280;7846;48.830;9.116;2023-05-23T08:01:46;97914.31;;;20.06;66.14
15489;BME280;7846;48.830;9.116;2023-05-23T08:04:14;97918.75;;;19.81;66.95
15489;BME280;7846;48.830;9.116;2023-05-23T08:06:40;97915.56;;;20.61;65.47
15489;BME280;7846;48.830;9.116;2023-05-23T08:09:05;97923.19;;;19.94;66.57
15489;BME280;7846;48.830;9.116;2023-05-23T08:11:31;97929.19;;;19.89;66.18
15489;BME280;7846;48.830;9.116;2023-05-23T08:13:57;97931.34;;;19.74;66.57
15489;BME280;7846;48.830;9.116;2023-05-23T08:16:24;97927.94;;;19.47;67.14
15489;BME280;7846;48.830;9.116;2023-05-23T08:18:50;97937.44;;;19.29;67.84
15489;BME280;7846;48.830;9.116;2023-05-23T08:21:19;97932.84;;;19.50;67.45
15489;BME280;7846;48.830;9.116;2023-05-23T08:23:44;97923.50;;;19.21;67.43
15489;BME280;7846;48.830;9.116;2023-05-23T08:26:10;97932.09;;;19.36;66.97
15489;BME280;7846;48.830;9.116;2023-05-23T08:28:36;97929.19;;;19.38;67.24
15489;BME280;7846;48.830;9.116;2023-05-23T08:31:01;97932.81;;;19.56;66.76
15489;BME280;7846;48.830;9.116;2023-05-23T08:33:27;97948.28;;;19.41;66.87
15489;BME280;7846;48.830;9.116;2023-05-23T08:35:52;97941.06;;;19.48;67.42
15489;BME280;7846;48.830;9.116;2023-05-23T08:38:19;97944.00;;;19.33;67.10
15489;BME280;7846;48.830;9.116;2023-05-23T08:40:49;97943.31;;;19.51;67.10
15489;BME280;7846;48.830;9.116;2023-05-23T08:43:16;97950.31;;;19.39;67.21
15489;BME280;7846;48.830;9.116;2023-05-23T08:45:42;97948.50;;;19.33;66.57
15489;BME280;7846;48.830;9.116;2023-05-23T08:48:12;97955.28;;;19.36;67.25
15489;BME280;7846;48.830;9.116;2023-05-23T08:50:42;97956.25;;;19.54;67.01
15489;BME280;7846;48.830;9.116;2023-05-23T08:53:14;97951.41;;;19.83;66.33
15489;BME280;7846;48.830;9.116;2023-05-23T08:55:47;97967.38;;;19.31;66.73
15489;BME280;7846;48.830;9.116;2023-05-23T08:58:16;97965.63;;;19.77;66.13
15489;BME280;7846;48.830;9.116;2023-05-23T09:00:44;97968.25;;;19.32;67.14
15489;BME280;7846;48.830;9.116;2023-05-23T09:03:10;97966.06;;;19.74;66.30
15489;BME280;7846;48.830;9.116;2023-05-23T09:05:36;97970.44;;;19.48;65.72
15489;BME280;7846;48.830;9.116;2023-05-23T09:08:01;97959.25;;;19.78;65.19
15489;BME280;7846;48.830;9.116;2023-05-23T09:10:27;97974.25;;;19.72;65.21
15489;BME280;7846;48.830;9.116;2023-05-23T09:12:54;97973.50;;;19.58;65.36
15489;BME280;7846;48.830;9.116;2023-05-23T09:15:19;97976.34;;;20.09;64.45
15489;BME280;7846;48.830;9.116;2023-05-23T09:17:46;97985.88;;;19.40;65.36
15489;BME280;7846;48.830;9.116;2023-05-23T09:20:13;97974.09;;;19.67;65.22
15489;BME280;7846;48.830;9.116;2023-05-23T09:22:39;97979.22;;;19.69;64.91
15489;BME280;7846;48.830;9.116;2023-05-23T09:25:07;97977.47;;;19.94;64.08
15489;BME280;7846;48.830;9.116;2023-05-23T09:27:33;97990.72;;;20.14;63.63
15489;BME280;7846;48.830;9.116;2023-05-23T09:30:08;97986.63;;;20.50;62.60
15489;BME280;7846;48.830;9.116;2023-05-23T09:32:34;97984.75;;;20.50;62.43
15489;BME280;7846;48.830;9.116;2023-05-23T09:35:04;97979.59;;;20.49;62.89
15489;BME280;7846;48.830;9.116;2023-05-23T09:37:38;97977.97;;;20.54;61.52
15489;BME280;7846;48.830;9.116;2023-05-23T09:40:12;97983.47;;;20.85;61.08
15489;BME280;7846;48.830;9.116;2023-05-23T09:42:42;97980.25;;;21.44;59.52
15489;BME280;7846;48.830;9.116;2023-05-23T09:45:09;97984.00;;;21.18;59.24
15489;BME280;7846;48.830;9.116;2023-05-23T09:47:34;97992.72;;;20.89;59.42
15489;BME280;7846;48.830;9.116;2023-05-23T09:49:59;97996.97;;;20.96;59.63
15489;BME280;7846;48.830;9.116;2023-05-23T09:52:25;97986.78;;;20.80;60.21
15489;BME280;7846;48.830;9.116;2023-05-23T09:54:51;97989.75;;;20.72;59.01
15489;BME280;7846;48.830;9.116;2023-05-23T09:57:18;97982.75;;;21.39;58.30
15489;BME280;7846;48.830;9.116;2023-05-23T09:59:52;97983.38;;;22.08;56.07
15489;BME280;7846;48.830;9.116;2023-05-23T10:02:57;97983.38;;;22.27;56.22
15489;BME280;7846;48.830;9.116;2023-05-23T10:05:52;97986.44;;;21.20;58.13
15489;BME280;7846;48.830;9.116;2023-05-23T10:08:24;97976.97;;;21.42;57.03
15489;BME280;7846;48.830;9.116;2023-05-23T10:13:26;97982.94;;;22.41;55.23
15489;BME280;7846;48.830;9.116;2023-05-23T10:15:59;97986.13;;;22.62;54.97
15489;BME280;7846;48.830;9.116;2023-05-23T10:18:28;97985.00;;;21.79;55.32
15489;BME280;7846;48.830;9.116;2023-05-23T10:21:00;97988.28;;;21.81;54.51
15489;BME280;7846;48.830;9.116;2023-05-23T10:23:31;97983.78;;;21.93;54.32
15489;BME280;7846;48.830;9.116;2023-05-23T10:25:58;97986.22;;;22.43;54.08
15489;BME280;7846;48.830;9.116;2023-05-23T10:28:23;97989.63;;;21.54;56.80
15489;BME280;7846;48.830;9.116;2023-05-23T10:30:51;97995.19;;;21.70;57.07
15489;BME280;7846;48.830;9.116;2023-05-23T10:33:16;97999.19;;;22.16;55.73
15489;BME280;7846;48.830;9.116;2023-05-23T10:36:20;97997.63;;;21.90;57.07
15489;BME280;7846;48.830;9.116;2023-05-23T10:38:41;97993.72;;;22.23;55.53
15489;BME280;7846;48.830;9.116;2023-05-23T10:41:27;97990.28;;;22.46;54.91
15489;BME280;7846;48.830;9.116;2023-05-23T10:44:09;97993.22;;;22.44;55.11
15489;BME280;7846;48.830;9.116;2023-05-23T10:46:52;97990.31;;;22.58;54.44
15489;BME280;7846;48.830;9.116;2023-05-23T10:49:36;97990.66;;;23.27;53.50
15489;BME280;7846;48.830;9.116;2023-05-23T10:52:01;97988.03;;;22.73;53.03
15489;BME280;7846;48.830;9.116;2023-05-23T10:54:33;97975.13;;;23.05;52.66
15489;BME280;7846;48.830;9.116;2023-05-23T10:57:05;97984.34;;;23.09;52.50
15489;BME280;7846;48.830;9.116;2023-05-23T10:59:32;97991.00;;;22.41;53.10
15489;BME280;7846;48.830;9.116;2023-05-23T11:02:00;97994.81;;;22.34;52.23
15489;BME280;7846;48.830;9.116;2023-05-23T11:04:28;97993.91;;;22.93;51.57
15489;BME280;7846;48.830;9.116;2023-05-23T11:06:54;97992.03;;;23.17;50.63
15489;BME280;7846;48.830;9.116;2023-05-23T11:09:21;97993.22;;;23.33;50.65
15489;BME280;7846;48.830;9.116;2023-05-23T11:14:13;97993.50;;;23.84;49.71
15489;BME280;7846;48.830;9.116;2023-05-23T11:16:40;97991.78;;;23.42;51.14
15489;BME280;7846;48.830;9.116;2023-05-23T11:19:19;97993.63;;;23.65;51.33
15489;BME280;7846;48.830;9.116;2023-05-23T11:21:48;98002.03;;;22.75;52.86
15489;BME280;7846;48.830;9.116;2023-05-23T11:24:14;98002.47;;;22.18;53.90
15489;BME280;7846;48.830;9.116;2023-05-23T11:26:59;98005.22;;;22.42;54.39
15489;BME280;7846;48.830;9.116;2023-05-23T11:29:28;98005.34;;;22.47;54.64
15489;BME280;7846;48.830;9.116;2023-05-23T11:31:54;98014.88;;;22.13;54.00
15489;BME280;7846;48.830;9.116;2023-05-23T11:34:21;98010.00;;;22.40;54.09
15489;BME280;7846;48.830;9.116;2023-05-23T11:36:46;98003.38;;;22.54;52.98
15489;BME280;7846;48.830;9.116;2023-05-23T11:39:13;97995.97;;;22.80;52.19
15489;BME280;7846;48.830;9.116;2023-05-23T11:41:40;97997.03;;;22.90;51.75
15489;BME280;7846;48.830;9.116;2023-05-23T11:44:15;97999.59;;;22.74;52.30
15489;BME280;7846;48.830;9.116;2023-05-23T11:46:40;97991.97;;;22.59;51.68
15489;BME280;7846;48.830;9.116;2023-05-23T11:49:10;97994.16;;;22.92;50.77
15489;BME280;7846;48.830;9.116;2023-05-23T11:51:35;97996.72;;;22.99;51.01
15489;BME280;7846;48.830;9.116;2023-05-23T11:54:01;97985.28;;;23.03;50.36
15489;BME280;7846;48.830;9.116;2023-05-23T11:56:26;98000.84;;;22.59;50.99
15489;BME280;7846;48.830;9.116;2023-05-23T11:58:54;97999.59;;;22.74;52.40
15489;BME280;7846;48.830;9.116;2023-05-23T12:01:27;97993.78;;;22.88;51.53
15489;BME280;7846;48.830;9.116;2023-05-23T12:03:55;97991.03;;;22.77;51.20
15489;BME280;7846;48.830;9.116;2023-05-23T12:06:21;97991.00;;;23.18;51.34
15489;BME280;7846;48.830;9.116;2023-05-23T12:08:49;97988.38;;;23.82;50.01
15489;BME280;7846;48.830;9.116;2023-05-23T12:11:17;97997.72;;;23.80;49.31
15489;BME280;7846;48.830;9.116;2023-05-23T12:13:43;97975.41;;;24.08;49.51
15489;BME280;7846;48.830;9.116;2023-05-23T12:16:09;97978.53;;;24.45;48.60
15489;BME280;7846;48.830;9.116;2023-05-23T12:18:37;97978.84;;;24.03;49.06
15489;BME280;7846;48.830;9.116;2023-05-23T12:21:03;97977.34;;;23.96;49.81
15489;BME280;7846;48.830;9.116;2023-05-23T12:23:30;97976.13;;;23.63;49.15
15489;BME280;7846;48.830;9.116;2023-05-23T12:25:56;97967.63;;;23.31;49.79
15489;BME280;7846;48.830;9.116;2023-05-23T12:28:34;97964.69;;;24.25;49.28
15489;BME280;7846;48.830;9.116;2023-05-23T12:31:17;97972.97;;;23.66;50.73
15489;BME280;7846;48.830;9.116;2023-05-23T12:33:43;97976.84;;;23.35;50.93
15489;BME280;7846;48.830;9.116;2023-05-23T12:36:13;97967.47;;;23.73;50.85
15489;BME280;7846;48.830;9.116;2023-05-23T12:38:47;97971.88;;;24.36;48.19
15489;BME280;7846;48.830;9.116;2023-05-23T12:41:17;97978.47;;;24.74;47.22
15489;BME280;7846;48.830;9.116;2023-05-23T12:43:53;97975.09;;;25.34;47.04
15489;BME280;7846;48.830;9.116;2023-05-23T12:46:20;97962.66;;;25.11;47.16
15489;BME280;7846;48.830;9.116;2023-05-23T12:48:45;97976.91;;;25.28;46.75
15489;BME280;7846;48.830;9.116;2023-05-23T12:51:12;97965.78;;;26.08;44.30
15489;BME280;7846;48.830;9.116;2023-05-23T12:53:37;97967.06;;;26.54;43.02
15489;BME280;7846;48.830;9.116;2023-05-23T12:56:03;97965.09;;;24.96;46.24
15489;BME280;7846;48.830;9.116;2023-05-23T12:58:28;97954.06;;;26.24;44.24
15489;BME280;7846;48.830;9.116;2023-05-23T13:00:57;97949.16;;;27.12;42.72
15489;BME280;7846;48.830;9.116;2023-05-23T13:03:23;97954.81;;;25.70;45.24
15489;BME280;7846;48.830;9.116;2023-05-23T13:05:48;97963.97;;;24.29;47.69
15489;BME280;7846;48.830;9.116;2023-05-23T13:08:14;97949.00;;;24.50;48.18
15489;BME280;7846;48.830;9.116;2023-05-23T13:10:40;97951.78;;;24.89;46.40
15489;BME280;7846;48.830;9.116;2023-05-23T13:13:06;97944.56;;;25.50;45.23
15489;BME280;7846;48.830;9.116;2023-05-23T13:15:31;97946.91;;;24.86;47.14
15489;BME280;7846;48.830;9.116;2023-05-23T13:17:56;97947.47;;;23.69;50.04
15489;BME280;7846;48.830;9.116;2023-05-23T13:20:22;97949.63;;;23.43;51.19
15489;BME280;7846;48.830;9.116;2023-05-23T13:22:49;97948.25;;;22.82;51.71